createdAt,value
2023-03-07T00:00:13.415Z,1.78
2023-03-07T00:02:41.490Z,1.78
2023-03-07T00:05:09.880Z,1.78
2023-03-07T00:07:37.512Z,1.79
2023-03-07T00:10:05.654Z,1.77
2023-03-07T00:12:34.606Z,1.78
2023-03-07T00:15:02.250Z,1.78
2023-03-07T00:17:29.825Z,1.78
2023-03-07T00:19:57.502Z,1.77
2023-03-07T00:22:25.097Z,1.75
2023-03-07T00:24:52.665Z,1.72
2023-03-07T00:27:20.287Z,1.71
2023-03-07T00:29:51.049Z,1.72
2023-03-07T00:32:19.328Z,1.73
2023-03-07T00:34:47.152Z,1.69
2023-03-07T00:37:15.291Z,1.67
2023-03-07T00:39:43.104Z,1.69
2023-03-07T00:42:10.856Z,1.67
2023-03-07T00:44:38.483Z,1.67
2023-03-07T00:47:07.888Z,1.67
2023-03-07T00:49:35.661Z,1.66
2023-03-07T00:52:03.602Z,1.67
2023-03-07T00:54:31.258Z,1.65
2023-03-07T00:56:58.864Z,1.66
2023-03-07T00:59:26.476Z,1.65
2023-03-07T01:01:54.083Z,1.66
2023-03-07T01:04:23.136Z,1.62
2023-03-07T01:06:51.027Z,1.64
2023-03-07T01:09:18.580Z,1.65
2023-03-07T01:11:46.179Z,1.64
2023-03-07T01:14:13.770Z,1.65
2023-03-07T01:16:41.531Z,1.68
2023-03-07T01:19:12.447Z,1.70
2023-03-07T01:21:42.877Z,1.70
2023-03-07T01:24:14.074Z,1.71
2023-03-07T01:26:41.838Z,1.69
2023-03-07T01:29:09.815Z,1.67
2023-03-07T01:31:37.673Z,1.67
2023-03-07T01:34:05.726Z,1.69
2023-03-07T01:36:34.806Z,1.68
2023-03-07T01:39:06.666Z,1.67
2023-03-07T01:41:35.134Z,1.64
2023-03-07T01:44:06.267Z,1.66
2023-03-07T01:46:40.061Z,1.67
2023-03-07T01:49:11.247Z,1.66
2023-03-07T01:51:41.573Z,1.62
2023-03-07T01:54:12.331Z,1.64
2023-03-07T01:56:40.493Z,1.65
2023-03-07T01:59:08.332Z,1.65
2023-03-07T02:01:36.413Z,1.65
2023-03-07T02:04:07.550Z,1.65
2023-03-07T02:06:36.703Z,1.65
2023-03-07T02:09:04.726Z,1.63
2023-03-07T02:11:33.778Z,1.66
2023-03-07T02:14:01.456Z,1.62
2023-03-07T02:16:29.126Z,1.61
2023-03-07T02:18:57.060Z,1.62
2023-03-07T02:21:32.868Z,1.63
2023-03-07T02:24:03.624Z,1.62
2023-03-07T02:26:43.928Z,1.66
2023-03-07T02:29:12.002Z,1.69
2023-03-07T02:31:39.738Z,1.65
2023-03-07T02:34:19.529Z,1.65
2023-03-07T02:36:47.822Z,1.67
2023-03-07T02:39:15.590Z,1.65
2023-03-07T02:41:44.637Z,1.67
2023-03-07T02:44:12.613Z,1.70
2023-03-07T02:46:40.341Z,1.71
2023-03-07T02:49:07.929Z,1.71
2023-03-07T02:51:35.525Z,1.72
2023-03-07T02:54:03.325Z,1.71
2023-03-07T02:56:31.093Z,1.71
2023-03-07T02:59:00.103Z,1.74
2023-03-07T03:01:27.874Z,1.74
2023-03-07T03:03:56.085Z,1.74
2023-03-07T03:06:24.275Z,1.74
2023-03-07T03:08:51.938Z,1.71
2023-03-07T03:11:19.564Z,1.71
2023-03-07T03:13:47.640Z,1.71
2023-03-07T03:16:17.212Z,1.71
2023-03-07T03:18:44.964Z,1.72
2023-03-07T03:21:14.463Z,1.74
2023-03-07T03:23:42.085Z,1.75
2023-03-07T03:26:11.579Z,1.74
2023-03-07T03:28:40.104Z,1.76
2023-03-07T03:31:10.336Z,1.76
2023-03-07T03:33:39.826Z,1.77
2023-03-07T03:36:09.383Z,1.77
2023-03-07T03:38:37.048Z,1.78
2023-03-07T03:41:06.603Z,1.79
2023-03-07T03:43:35.081Z,1.77
2023-03-07T03:46:02.888Z,1.80
2023-03-07T03:48:30.922Z,1.77
2023-03-07T03:51:04.969Z,1.78
2023-03-07T03:53:33.144Z,1.75
2023-03-07T03:56:05.945Z,1.76
2023-03-07T03:58:33.980Z,1.79
2023-03-07T04:01:02.659Z,1.84
2023-03-07T04:03:30.304Z,1.81
2023-03-07T04:06:03.581Z,1.81
2023-03-07T04:08:31.395Z,1.80
2023-03-07T04:10:59.150Z,1.81
2023-03-07T04:13:26.880Z,1.83
2023-03-07T04:15:54.910Z,1.83
2023-03-07T04:18:22.872Z,1.81
2023-03-07T04:20:51.314Z,1.74
2023-03-07T04:23:21.022Z,1.74
2023-03-07T04:25:49.279Z,1.77
2023-03-07T04:28:17.141Z,1.79
2023-03-07T04:30:44.866Z,1.76
2023-03-07T04:33:13.385Z,1.75
2023-03-07T04:35:41.011Z,1.75
2023-03-07T04:38:08.667Z,1.75
2023-03-07T04:40:37.635Z,1.76
2023-03-07T04:43:05.805Z,1.72
2023-03-07T04:45:35.100Z,1.71
2023-03-07T04:48:02.973Z,1.63
2023-03-07T04:50:30.717Z,1.61
2023-03-07T04:52:58.321Z,1.61
2023-03-07T04:55:25.956Z,1.58
2023-03-07T04:57:57.626Z,1.58
2023-03-07T05:00:25.702Z,1.56
2023-03-07T05:02:53.308Z,1.52
2023-03-07T05:05:20.921Z,1.50
2023-03-07T05:07:48.796Z,1.50
2023-03-07T05:10:16.802Z,1.46
2023-03-07T05:12:44.422Z,1.40
2023-03-07T05:15:13.500Z,1.37
2023-03-07T05:17:41.127Z,1.29
2023-03-07T05:20:11.676Z,1.22
2023-03-07T05:22:39.326Z,1.20
2023-03-07T05:25:07.980Z,1.14
2023-03-07T05:27:35.646Z,1.10
2023-03-07T05:30:03.616Z,1.05
2023-03-07T05:32:32.821Z,1.00
2023-03-07T05:35:00.559Z,1.05
2023-03-07T05:37:56.904Z,1.06
2023-03-07T05:40:24.702Z,1.09
2023-03-07T05:42:52.452Z,1.09
2023-03-07T05:45:21.172Z,1.11
2023-03-07T05:47:50.264Z,1.11
2023-03-07T05:50:19.069Z,1.07
2023-03-07T05:52:46.765Z,0.98
2023-03-07T05:55:14.408Z,0.99
2023-03-07T05:57:42.128Z,0.97
2023-03-07T06:00:11.489Z,0.91
2023-03-07T06:02:39.163Z,0.87
2023-03-07T06:05:08.921Z,0.83
2023-03-07T06:07:36.573Z,0.78
2023-03-07T06:10:04.407Z,0.75
2023-03-07T06:12:32.090Z,0.78
2023-03-07T06:14:59.830Z,0.78
2023-03-07T06:17:27.499Z,0.81
2023-03-07T06:19:55.293Z,0.80
2023-03-07T06:22:24.431Z,0.83
2023-03-07T06:24:52.216Z,0.87
2023-03-07T06:27:19.891Z,0.88
2023-03-07T06:29:47.632Z,0.95
2023-03-07T06:32:15.429Z,1.03
2023-03-07T06:34:43.035Z,1.09
2023-03-07T06:37:10.704Z,1.17
2023-03-07T06:39:39.919Z,1.26
2023-03-07T06:42:07.716Z,1.32
2023-03-07T06:44:35.324Z,1.38
2023-03-07T06:47:02.981Z,1.47
2023-03-07T06:49:30.582Z,1.54
2023-03-07T06:51:58.490Z,1.62
2023-03-07T06:54:26.192Z,1.67
2023-03-07T06:56:55.203Z,1.72
2023-03-07T06:59:22.845Z,1.75
2023-03-07T07:01:50.570Z,1.82
2023-03-07T07:04:18.296Z,1.89
2023-03-07T07:06:45.961Z,1.94
2023-03-07T07:09:14.556Z,2.02
2023-03-07T07:11:42.218Z,2.06
2023-03-07T07:14:11.179Z,2.12
2023-03-07T07:16:38.973Z,2.18
2023-03-07T07:19:06.596Z,2.27
2023-03-07T07:21:34.206Z,2.36
2023-03-07T07:24:01.863Z,2.44
2023-03-07T07:26:29.589Z,2.55
2023-03-07T07:28:57.188Z,2.64
2023-03-07T07:31:26.280Z,2.66
2023-03-07T07:33:54.035Z,2.70
2023-03-07T07:36:23.636Z,2.77
2023-03-07T07:38:51.307Z,2.84
2023-03-07T07:41:19.232Z,2.93
2023-03-07T07:43:48.353Z,3.03
2023-03-07T07:46:16.137Z,3.16
2023-03-07T07:48:47.622Z,3.30
2023-03-07T07:51:15.330Z,3.49
2023-03-07T07:53:43.017Z,3.66
2023-03-07T07:56:10.727Z,3.78
2023-03-07T07:58:38.416Z,3.93
2023-03-07T08:01:14.450Z,4.02
2023-03-07T08:03:42.174Z,4.13
2023-03-07T08:06:11.408Z,4.17
2023-03-07T08:08:39.479Z,4.29
2023-03-07T08:11:07.183Z,3.88
2023-03-07T08:13:34.832Z,4.19
2023-03-07T08:16:10.049Z,4.40
2023-03-07T08:18:37.813Z,4.49
2023-03-07T08:21:05.917Z,4.52
2023-03-07T08:23:35.025Z,4.60
2023-03-07T08:26:05.844Z,4.63
2023-03-07T08:28:33.996Z,4.71
2023-03-07T08:31:07.859Z,4.83
2023-03-07T08:33:35.529Z,4.62
2023-03-07T08:36:03.551Z,4.87
2023-03-07T08:38:31.240Z,5.13
2023-03-07T08:41:02.616Z,5.31
2023-03-07T08:43:30.350Z,5.49
2023-03-07T08:45:58.303Z,5.60
2023-03-07T08:48:26.372Z,5.72
2023-03-07T08:50:55.246Z,5.76
2023-03-07T08:53:23.261Z,5.68
2023-03-07T08:55:51.039Z,5.82
2023-03-07T08:58:20.012Z,5.98
2023-03-07T09:00:47.666Z,6.06
2023-03-07T09:03:15.306Z,6.14
2023-03-07T09:05:42.977Z,6.29
2023-03-07T09:08:10.590Z,6.35
2023-03-07T09:10:38.361Z,6.25
2023-03-07T09:13:06.117Z,6.41
2023-03-07T09:15:35.152Z,6.45
2023-03-07T09:18:02.809Z,6.40
2023-03-07T09:20:30.503Z,6.59
2023-03-07T09:22:58.369Z,6.65
2023-03-07T09:25:26.192Z,6.82
2023-03-07T09:27:54.245Z,6.23
2023-03-07T09:30:22.733Z,6.58
2023-03-07T09:32:51.945Z,7.01
2023-03-07T09:35:19.796Z,7.30
2023-03-07T09:37:47.416Z,7.40
2023-03-07T09:40:19.471Z,7.64
2023-03-07T09:42:56.589Z,7.68
2023-03-07T09:45:38.860Z,7.63
2023-03-07T09:48:47.199Z,7.81
2023-03-07T09:51:18.033Z,7.87
2023-03-07T09:53:48.185Z,7.87
2023-03-07T09:56:21.237Z,7.72
2023-03-07T09:58:54.739Z,7.54
2023-03-07T10:01:25.433Z,7.39
2023-03-07T10:03:59.021Z,7.40
2023-03-07T10:06:30.525Z,7.61
2023-03-07T10:08:59.288Z,7.70
2023-03-07T10:11:32.667Z,7.77
2023-03-07T10:14:18.931Z,8.09
2023-03-07T10:16:50.738Z,8.01
2023-03-07T10:19:26.700Z,8.21
2023-03-07T10:21:58.982Z,8.43
2023-03-07T10:24:37.572Z,8.15
2023-03-07T10:27:07.913Z,8.08
2023-03-07T10:29:41.261Z,8.48
2023-03-07T10:32:24.278Z,8.60
2023-03-07T10:34:57.019Z,8.16
2023-03-07T10:37:34.731Z,7.34
2023-03-07T10:40:04.977Z,7.90
2023-03-07T10:42:36.823Z,8.31
2023-03-07T10:45:04.977Z,8.72
2023-03-07T10:47:32.662Z,9.11
2023-03-07T10:50:10.580Z,9.09
2023-03-07T10:52:41.329Z,9.27
2023-03-07T10:55:31.832Z,9.39
2023-03-07T10:58:13.762Z,9.46
2023-03-07T11:00:41.714Z,9.23
2023-03-07T11:03:23.843Z,9.16
2023-03-07T11:05:52.957Z,9.05
2023-03-07T11:08:29.380Z,9.40
2023-03-07T11:10:57.027Z,9.33
2023-03-07T11:13:25.648Z,9.39
2023-03-07T11:16:02.837Z,9.33
2023-03-07T11:18:40.240Z,9.49
2023-03-07T11:21:28.056Z,9.58
2023-03-07T11:24:01.040Z,9.48
2023-03-07T11:26:32.475Z,9.57
2023-03-07T11:29:08.604Z,9.50
2023-03-07T11:31:43.948Z,9.72
2023-03-07T11:34:23.869Z,9.97
2023-03-07T11:36:57.175Z,10.06
2023-03-07T11:39:33.854Z,8.33
2023-03-07T11:42:04.670Z,8.92
2023-03-07T11:44:36.068Z,9.22
2023-03-07T11:47:14.431Z,9.48
2023-03-07T11:49:46.971Z,9.52
2023-03-07T11:52:28.062Z,8.29
2023-03-07T11:55:03.540Z,9.04
2023-03-07T11:57:45.594Z,9.52
2023-03-07T12:00:21.597Z,9.75
2023-03-07T12:02:58.053Z,9.97
2023-03-07T12:05:43.461Z,9.69
2023-03-07T12:08:36.194Z,9.98
2023-03-07T12:11:12.906Z,10.24
2023-03-07T12:13:46.718Z,10.31
2023-03-07T12:16:20.647Z,10.03
2023-03-07T12:19:01.089Z,9.89
2023-03-07T12:21:42.176Z,10.12
2023-03-07T12:24:16.854Z,9.46
2023-03-07T12:26:51.335Z,9.84
2023-03-07T12:29:22.844Z,10.09
2023-03-07T12:31:53.164Z,10.27
2023-03-07T12:34:26.816Z,10.16
2023-03-07T12:36:57.245Z,10.48
2023-03-07T12:39:30.631Z,10.53
2023-03-07T12:42:01.348Z,10.04
2023-03-07T12:44:34.789Z,10.34
2023-03-07T12:47:08.381Z,9.98
2023-03-07T12:49:49.408Z,10.09
2023-03-07T12:52:33.189Z,10.20
2023-03-07T12:55:08.737Z,9.51
2023-03-07T12:57:41.284Z,9.64
2023-03-07T13:00:11.690Z,10.10
2023-03-07T13:02:43.231Z,10.02
2023-03-07T13:05:19.484Z,9.38
2023-03-07T13:07:48.188Z,9.54
2023-03-07T13:10:19.880Z,9.81
2023-03-07T13:12:48.036Z,10.00
2023-03-07T13:15:50.617Z,9.81
2023-03-07T13:18:29.888Z,10.01
2023-03-07T13:21:33.645Z,10.40
2023-03-07T13:24:44.039Z,10.54
2023-03-07T13:27:17.136Z,10.40
2023-03-07T13:30:07.223Z,10.02
2023-03-07T13:32:57.856Z,9.92
2023-03-07T13:35:53.685Z,10.00
2023-03-07T13:38:32.413Z,10.37
2023-03-07T13:41:00.655Z,10.44
2023-03-07T13:43:57.878Z,10.28
2023-03-07T13:46:51.644Z,10.29
2023-03-07T13:49:49.513Z,9.72
2023-03-07T13:52:32.745Z,10.08
2023-03-07T13:55:01.853Z,10.27
2023-03-07T13:57:35.833Z,10.29
2023-03-07T14:00:15.408Z,10.27
2023-03-07T14:02:44.061Z,10.40
2023-03-07T14:05:12.371Z,10.37
2023-03-07T14:07:41.305Z,10.19
2023-03-07T14:10:22.511Z,10.16
2023-03-07T14:13:21.458Z,10.16
2023-03-07T14:16:05.031Z,10.19
2023-03-07T14:18:43.304Z,10.28
2023-03-07T14:21:15.233Z,10.01
2023-03-07T14:24:05.180Z,9.61
2023-03-07T14:26:35.009Z,9.72
2023-03-07T14:29:04.782Z,9.83
2023-03-07T14:31:39.296Z,9.90
2023-03-07T14:34:17.510Z,9.82
2023-03-07T14:36:46.255Z,9.78
2023-03-07T14:39:15.122Z,9.75
2023-03-07T14:41:47.494Z,9.68
2023-03-07T14:44:32.312Z,9.69
2023-03-07T14:47:12.876Z,9.69
2023-03-07T14:49:46.208Z,9.04
2023-03-07T14:52:28.274Z,9.18
2023-03-07T14:55:00.984Z,8.83
2023-03-07T14:57:33.258Z,9.10
2023-03-07T15:00:09.832Z,9.12
2023-03-07T15:02:46.626Z,9.03
2023-03-07T15:05:17.034Z,8.95
2023-03-07T15:07:46.348Z,8.91
2023-03-07T15:10:17.502Z,8.87
2023-03-07T15:12:46.920Z,8.66
2023-03-07T15:15:25.160Z,8.78
2023-03-07T15:17:56.257Z,8.63
2023-03-07T15:20:25.598Z,8.69
2023-03-07T15:22:53.789Z,8.31
2023-03-07T15:25:25.710Z,8.32
2023-03-07T15:27:59.871Z,8.40
2023-03-07T15:30:29.542Z,8.44
2023-03-07T15:33:13.507Z,8.27
2023-03-07T15:35:41.332Z,8.33
2023-03-07T15:38:15.964Z,8.28
2023-03-07T15:40:44.157Z,8.26
2023-03-07T15:43:25.604Z,8.31
2023-03-07T15:46:03.081Z,8.28
2023-03-07T15:48:37.310Z,8.28
2023-03-07T15:51:07.157Z,8.19
2023-03-07T15:53:37.835Z,8.19
2023-03-07T15:56:07.954Z,8.08
2023-03-07T15:58:36.704Z,7.95
2023-03-07T16:01:09.157Z,7.87
2023-03-07T16:03:49.402Z,7.83
2023-03-07T16:06:36.438Z,7.77
2023-03-07T16:09:05.349Z,7.81
2023-03-07T16:11:33.456Z,7.75
2023-03-07T16:14:01.246Z,7.59
2023-03-07T16:16:30.517Z,7.44
2023-03-07T16:18:59.667Z,7.47
2023-03-07T16:21:27.615Z,7.40
2023-03-07T16:23:55.292Z,7.31
2023-03-07T16:26:24.456Z,7.33
2023-03-07T16:28:53.101Z,7.28
2023-03-07T16:31:21.520Z,7.08
2023-03-07T16:33:49.416Z,7.08
2023-03-07T16:36:19.005Z,7.03
2023-03-07T16:38:47.589Z,7.05
2023-03-07T16:41:17.262Z,7.02
2023-03-07T16:43:45.522Z,6.98
2023-03-07T16:46:15.443Z,6.88
2023-03-07T16:48:43.252Z,6.81
2023-03-07T16:51:14.039Z,6.74
2023-03-07T16:53:43.154Z,6.54
2023-03-07T16:56:17.087Z,6.49
2023-03-07T16:58:44.774Z,6.42
2023-03-07T17:01:14.384Z,6.28
2023-03-07T17:03:42.118Z,6.22
2023-03-07T17:06:13.886Z,6.21
2023-03-07T17:08:42.905Z,6.18
2023-03-07T17:11:18.025Z,6.17
2023-03-07T17:13:46.397Z,6.06
2023-03-07T17:16:15.216Z,5.99
2023-03-07T17:18:43.091Z,5.93
2023-03-07T17:21:13.977Z,5.88
2023-03-07T17:23:44.995Z,5.86
2023-03-07T17:26:17.621Z,5.81
2023-03-07T17:28:45.426Z,5.74
2023-03-07T17:31:13.491Z,5.72
2023-03-07T17:33:41.139Z,5.68
2023-03-07T17:36:10.589Z,5.63
2023-03-07T17:38:38.337Z,5.59
2023-03-07T17:41:07.599Z,5.59
2023-03-07T17:43:35.286Z,5.54
2023-03-07T17:46:02.985Z,5.48
2023-03-07T17:48:30.655Z,5.29
2023-03-07T17:50:58.309Z,5.16
2023-03-07T17:53:26.012Z,5.14
2023-03-07T17:55:53.653Z,5.08
2023-03-07T17:58:22.694Z,5.06
2023-03-07T18:00:50.327Z,5.01
2023-03-07T18:03:17.980Z,4.91
2023-03-07T18:05:45.649Z,4.78
2023-03-07T18:08:13.309Z,4.56
2023-03-07T18:10:40.928Z,4.52
2023-03-07T18:13:09.822Z,4.41
2023-03-07T18:15:39.221Z,4.36
2023-03-07T18:18:07.036Z,4.35
2023-03-07T18:20:34.713Z,4.31
2023-03-07T18:23:02.345Z,4.19
2023-03-07T18:25:30.170Z,4.17
2023-03-07T18:27:57.878Z,4.13
2023-03-07T18:30:25.736Z,4.02
2023-03-07T18:32:55.448Z,4.00
2023-03-07T18:35:23.487Z,3.97
2023-03-07T18:37:51.109Z,3.97
2023-03-07T18:40:22.007Z,3.92
2023-03-07T18:42:49.643Z,3.87
2023-03-07T18:45:17.398Z,3.71
2023-03-07T18:47:45.149Z,3.57
2023-03-07T18:50:14.197Z,3.48
2023-03-07T18:52:41.789Z,3.43
2023-03-07T18:55:10.376Z,3.44
2023-03-07T18:57:38.007Z,3.43
2023-03-07T19:00:07.095Z,3.40
2023-03-07T19:02:34.796Z,3.39
2023-03-07T19:05:02.426Z,3.28
2023-03-07T19:07:31.956Z,3.23
2023-03-07T19:09:59.619Z,3.21
2023-03-07T19:12:27.360Z,3.18
2023-03-07T19:14:55.103Z,3.16
2023-03-07T19:17:22.743Z,3.16
2023-03-07T19:19:52.904Z,3.08
2023-03-07T19:22:25.853Z,3.06
2023-03-07T19:24:56.073Z,3.07
2023-03-07T19:27:24.206Z,3.03
2023-03-07T19:29:53.319Z,2.96
2023-03-07T19:32:21.028Z,2.92
2023-03-07T19:34:49.669Z,2.90
2023-03-07T19:37:17.393Z,2.83
2023-03-07T19:39:44.992Z,2.65
2023-03-07T19:42:14.033Z,2.62
2023-03-07T19:44:41.741Z,2.55
2023-03-07T19:47:09.374Z,2.37
2023-03-07T19:49:36.973Z,2.30
2023-03-07T19:52:04.894Z,2.34
2023-03-07T19:54:32.866Z,2.37
2023-03-07T19:57:00.585Z,2.39
2023-03-07T19:59:29.624Z,2.36
2023-03-07T20:01:57.288Z,2.37
2023-03-07T20:04:24.954Z,2.41
2023-03-07T20:06:52.579Z,2.44
2023-03-07T20:09:20.256Z,2.47
2023-03-07T20:11:47.842Z,2.48
2023-03-07T20:14:15.511Z,2.52
2023-03-07T20:16:44.500Z,2.53
2023-03-07T20:19:12.137Z,2.57
2023-03-07T20:21:42.366Z,2.60
2023-03-07T20:24:10.212Z,2.65
2023-03-07T20:26:39.109Z,2.66
2023-03-07T20:29:07.881Z,2.67
2023-03-07T20:31:36.421Z,2.69
2023-03-07T20:34:05.615Z,2.73
2023-03-07T20:36:34.656Z,2.72
2023-03-07T20:39:03.631Z,2.77
2023-03-07T20:41:32.578Z,2.80
2023-03-07T20:44:02.314Z,2.84
2023-03-07T20:46:31.184Z,2.86
2023-03-07T20:49:00.235Z,2.91
2023-03-07T20:51:31.415Z,2.96
2023-03-07T20:54:00.308Z,3.01
2023-03-07T20:56:29.674Z,3.02
2023-03-07T20:58:58.121Z,3.04
2023-03-07T21:01:26.955Z,3.07
2023-03-07T21:03:55.134Z,3.09
2023-03-07T21:06:22.963Z,3.10
2023-03-07T21:08:51.945Z,3.11
2023-03-07T21:11:21.626Z,3.13
2023-03-07T21:13:50.515Z,3.14
2023-03-07T21:16:20.411Z,3.17
2023-03-07T21:18:51.071Z,3.18
2023-03-07T21:21:20.346Z,3.21
2023-03-07T21:23:48.429Z,3.22
2023-03-07T21:26:19.214Z,3.23
2023-03-07T21:28:47.399Z,3.25
2023-03-07T21:31:17.933Z,3.26
2023-03-07T21:33:47.291Z,3.28
2023-03-07T21:36:15.889Z,3.28
2023-03-07T21:38:44.836Z,3.27
2023-03-07T21:41:12.664Z,3.29
2023-03-07T21:43:42.314Z,3.33
2023-03-07T21:46:11.672Z,3.39
2023-03-07T21:48:39.583Z,3.40
2023-03-07T21:51:07.882Z,3.42
2023-03-07T21:53:35.825Z,3.43
2023-03-07T21:56:05.888Z,3.43
2023-03-07T21:58:33.942Z,3.42
2023-03-07T22:01:10.319Z,3.45
2023-03-07T22:03:59.962Z,3.46
2023-03-07T22:06:28.809Z,3.47
2023-03-07T22:08:56.548Z,3.51
2023-03-07T22:11:24.187Z,3.55
2023-03-07T22:13:51.862Z,3.56
2023-03-07T22:16:21.635Z,3.57
2023-03-07T22:18:53.566Z,3.54
2023-03-07T22:21:21.443Z,3.53
2023-03-07T22:23:49.086Z,3.53
2023-03-07T22:26:16.689Z,3.54
2023-03-07T22:28:44.317Z,3.55
2023-03-07T22:31:13.315Z,3.57
2023-03-07T22:33:42.594Z,3.59
2023-03-07T22:36:13.081Z,3.62
2023-03-07T22:38:41.641Z,3.63
2023-03-07T22:41:12.333Z,3.65
2023-03-07T22:43:40.291Z,3.66
2023-03-07T22:46:08.552Z,3.67
2023-03-07T22:48:36.639Z,3.61
2023-03-07T22:51:06.025Z,3.58
2023-03-07T22:53:35.490Z,3.61
2023-03-07T22:56:03.185Z,3.58
2023-03-07T22:58:30.872Z,3.58
2023-03-07T23:00:58.615Z,3.57
2023-03-07T23:03:26.662Z,3.56
2023-03-07T23:05:54.300Z,3.57
2023-03-07T23:08:23.260Z,3.58
2023-03-07T23:10:50.907Z,3.61
2023-03-07T23:13:18.536Z,3.60
2023-03-07T23:15:46.185Z,3.58
2023-03-07T23:18:13.842Z,3.54
2023-03-07T23:20:41.443Z,3.53
2023-03-07T23:23:09.422Z,3.52
2023-03-07T23:25:42.261Z,3.53
2023-03-07T23:28:10.230Z,3.51
2023-03-07T23:30:38.411Z,3.48
2023-03-07T23:33:06.482Z,3.46
2023-03-07T23:35:34.449Z,3.46
2023-03-07T23:38:02.288Z,3.45
2023-03-07T23:40:30.072Z,3.44
2023-03-07T23:42:59.359Z,3.47
2023-03-07T23:45:27.100Z,3.46
2023-03-07T23:47:54.758Z,3.50
2023-03-07T23:50:22.605Z,3.44
2023-03-07T23:52:50.284Z,3.46
2023-03-07T23:55:18.034Z,3.39
2023-03-07T23:57:47.721Z,3.40
